Time;durP1;ratioP1;P1;durP2;ratioP2;P2;SDS_P1;SDS_P2;PMS_P1;PMS_P2;Temp;Humidity;BMP_temperature;BMP_pressure;BME280_temperature;BME280_humidity;BME280_pressure;Samples;Min_cycle;Max_cycle;Signal;HPM_P1;HPM_P2
2024/04/01 00:01:26;;;;;;;;;;;9.90;99.90;;;8.86;100.00;95827.00;4985688;28;1929;-69
2024/04/01 00:03:52;;;;;;;;;;;9.90;99.90;;;8.89;100.00;95813.03;4955134;28;1351;-69
2024/04/01 00:06:17;;;;;;;;;;;9.70;99.90;;;8.80;100.00;95806.69;4987951;28;2279;-69
2024/04/01 00:08:43;;;;;;;;;;;9.70;99.90;;;8.85;100.00;95798.63;4956691;28;2356;-69
2024/04/01 00:11:09;;;;;;;;;;;9.70;99.90;;;8.78;100.00;95788.69;4940260;28;2326;-69
2024/04/01 00:13:35;;;;;;;;;;;9.60;99.90;;;8.66;100.00;95796.41;4958071;28;1324;-69
2024/04/01 00:16:01;;;;;;;;;;;9.50;99.90;;;8.62;100.00;95813.03;4942639;28;1615;-69
2024/04/01 00:18:27;;;;;;;;;;;9.50;99.90;;;8.45;100.00;95814.91;4940974;28;1746;-69
2024/04/01 00:20:56;;;;;;;;;;;9.40;99.90;;;8.47;100.00;95818.25;4958077;28;1644;-69
2024/04/01 00:23:26;;;;;;;;;;;9.40;99.90;;;8.60;100.00;95813.16;4959107;28;1618;-69
2024/04/01 00:25:52;;;;;;;;;;;9.30;99.90;;;8.53;100.00;95823.03;4991291;28;2227;-69
2024/04/01 00:28:18;;;;;;;;;;;9.20;99.90;;;8.44;100.00;95841.72;4957731;28;1591;-69
2024/04/01 00:30:44;;;;;;;;;;;9.20;99.90;;;8.48;100.00;95826.81;4989854;28;1978;-69
2024/04/01 00:33:10;;;;;;;;;;;9.10;99.90;;;8.47;100.00;95836.34;4960116;28;1543;-70
2024/04/01 00:35:40;;;;;;;;;;;9.10;99.90;;;8.49;100.00;95820.75;4975942;28;1559;-69
2024/04/01 00:38:06;;;;;;;;;;;9.00;99.90;;;8.46;100.00;95819.19;4970943;28;1442;-69
2024/04/01 00:40:34;;;;;;;;;;;9.00;99.90;;;8.50;100.00;95812.03;4958647;28;3121;-69
2024/04/01 00:43:13;;;;;;;;;;;9.00;99.90;;;8.35;100.00;95793.97;4959828;28;1498;-69
2024/04/01 00:45:42;;;;;;;;;;;9.00;99.90;;;8.34;100.00;95786.28;4962249;28;2415;-69
2024/04/01 00:48:08;;;;;;;;;;;9.10;99.90;;;8.40;100.00;95782.50;4958163;28;1602;-69
2024/04/01 00:50:36;;;;;;;;;;;9.20;99.90;;;8.47;100.00;95768.28;4977724;28;2012;-69
2024/04/01 00:53:03;;;;;;;;;;;9.30;99.90;;;8.68;100.00;95759.16;4960604;28;1316;-69
2024/04/01 00:55:31;;;;;;;;;;;9.40;99.90;;;8.86;100.00;95756.31;4964376;28;1417;-69
2024/04/01 00:57:59;;;;;;;;;;;9.50;99.90;;;8.85;100.00;95752.06;4977136;28;1606;-69
2024/04/01 01:00:25;;;;;;;;;;;9.50;99.90;;;8.89;100.00;95743.19;4958490;28;2203;-69
2024/04/01 01:02:52;;;;;;;;;;;9.50;99.90;;;8.85;100.00;95737.38;4965531;28;1873;-69
2024/04/01 01:05:18;;;;;;;;;;;9.60;99.90;;;8.88;100.00;95742.34;4960951;28;1860;-69
2024/04/01 01:07:44;;;;;;;;;;;9.60;99.90;;;8.87;100.00;95740.72;4974183;28;1886;-69
2024/04/01 01:10:12;;;;;;;;;;;9.60;99.90;;;8.75;100.00;95737.13;4958080;28;1507;-69
2024/04/01 01:12:38;;;;;;;;;;;9.60;99.90;;;8.70;100.00;95730.63;4962201;28;1989;-69
2024/04/01 01:15:05;;;;;;;;;;;9.50;99.90;;;8.81;100.00;95729.94;4945371;28;2028;-69
2024/04/01 01:17:34;;;;;;;;;;;9.50;99.90;;;9.02;100.00;95731.09;4992966;28;1611;-68
2024/04/01 01:20:01;;;;;;;;;;;9.50;99.90;;;8.94;100.00;95728.16;4993110;28;1467;-69
2024/04/01 01:22:36;;;;;;;;;;;9.30;99.90;;;8.85;100.00;95736.53;4975765;28;1681;-69
2024/04/01 01:25:06;;;;;;;;;;;9.30;99.90;;;8.70;100.00;95739.19;4991932;28;1497;-69
2024/04/01 01:27:37;;;;;;;;;;;9.30;99.90;;;8.59;100.00;95752.81;4962827;28;3179;-69
2024/04/01 01:30:03;;;;;;;;;;;9.30;99.90;;;8.56;100.00;95750.44;4963784;28;1618;-69
2024/04/01 01:32:30;;;;;;;;;;;9.30;99.90;;;8.53;100.00;95750.63;4962120;28;1879;-69
2024/04/01 01:34:57;;;;;;;;;;;9.20;99.90;;;8.47;100.00;95745.03;4994144;28;1548;-69
2024/04/01 01:37:23;;;;;;;;;;;9.30;99.90;;;8.55;100.00;95756.53;4977317;28;1831;-69
2024/04/01 01:39:49;;;;;;;;;;;9.20;99.90;;;8.41;100.00;95759.16;4944796;28;2284;-69
2024/04/01 01:42:15;;;;;;;;;;;9.20;99.90;;;8.35;100.00;95768.09;4959712;28;2415;-69
2024/04/01 01:44:41;;;;;;;;;;;9.20;99.90;;;8.56;100.00;95749.59;4958869;28;1828;-69
2024/04/01 01:47:07;;;;;;;;;;;9.20;99.90;;;8.51;100.00;95736.16;4964161;28;2518;-69
2024/04/01 01:49:32;;;;;;;;;;;9.20;99.90;;;8.56;100.00;95729.75;4960113;28;2474;-69
2024/04/01 01:51:58;;;;;;;;;;;9.20;99.90;;;8.64;100.00;95711.13;4957399;28;1903;-69
2024/04/01 01:54:25;;;;;;;;;;;9.20;99.90;;;8.74;100.00;95698.47;4961222;28;1568;-69
2024/04/01 01:56:51;;;;;;;;;;;9.20;99.90;;;8.63;100.00;95700.91;4962094;28;1735;-69
2024/04/01 01:59:17;;;;;;;;;;;9.30;99.90;;;8.54;100.00;95690.22;4964442;28;1707;-69
2024/04/01 02:01:43;;;;;;;;;;;9.30;99.90;;;8.41;100.00;95675.59;4962683;28;1595;-70
2024/04/01 02:04:09;;;;;;;;;;;9.30;99.90;;;8.38;100.00;95676.59;4958344;28;2013;-69
2024/04/01 02:06:34;;;;;;;;;;;9.20;99.90;;;8.40;100.00;95677.34;4989264;28;3603;-69
2024/04/01 02:09:00;;;;;;;;;;;9.20;99.90;;;8.51;100.00;95664.56;4959108;28;1564;-69
2024/04/01 02:11:26;;;;;;;;;;;9.20;99.90;;;8.53;100.00;95660.13;4960704;28;2010;-69
2024/04/01 02:13:52;;;;;;;;;;;9.10;99.90;;;8.56;100.00;95641.00;4961943;28;1945;-69
2024/04/01 02:16:18;;;;;;;;;;;9.10;99.90;;;8.42;100.00;95623.81;4962264;28;1495;-69
2024/04/01 02:18:45;;;;;;;;;;;9.10;99.90;;;8.34;100.00;95626.00;4957736;28;1905;-69
2024/04/01 02:21:11;;;;;;;;;;;9.10;99.90;;;8.34;100.00;95626.84;4978052;28;1599;-69
2024/04/01 02:23:37;;;;;;;;;;;9.10;99.90;;;8.33;100.00;95616.63;4963650;28;1916;-69
2024/04/01 02:26:04;;;;;;;;;;;9.10;99.90;;;8.29;100.00;95615.16;4961242;28;1420;-69
2024/04/01 02:28:31;;;;;;;;;;;9.00;99.90;;;8.31;100.00;95615.88;4960478;28;1738;-69
2024/04/01 02:30:57;;;;;;;;;;;9.00;99.90;;;8.35;100.00;95625.09;4959693;28;2001;-69
2024/04/01 02:33:24;;;;;;;;;;;9.00;99.90;;;8.45;100.00;95626.19;4961412;28;2362;-69
2024/04/01 02:35:50;;;;;;;;;;;9.00;99.90;;;8.47;100.00;95619.16;4959872;28;1729;-69
2024/04/01 02:38:19;;;;;;;;;;;9.00;99.90;;;8.57;100.00;95633.13;4957690;28;1552;-69
2024/04/01 02:40:46;;;;;;;;;;;9.10;99.90;;;8.57;100.00;95640.06;4959765;28;1762;-69
2024/04/01 02:43:12;;;;;;;;;;;9.20;99.90;;;8.66;100.00;95651.56;4963058;28;1432;-69
2024/04/01 02:45:42;;;;;;;;;;;9.20;99.90;;;8.64;100.00;95638.72;4959674;28;1261;-69
2024/04/01 02:48:08;;;;;;;;;;;9.20;99.90;;;8.59;100.00;95631.25;4974651;28;3208;-69
2024/04/01 02:50:34;;;;;;;;;;;9.20;99.90;;;8.55;100.00;95624.66;4959528;28;2154;-69
2024/04/01 02:53:00;;;;;;;;;;;9.20;99.90;;;8.50;100.00;95626.69;4992592;28;1274;-69
2024/04/01 02:55:26;;;;;;;;;;;9.20;99.90;;;8.53;100.00;95633.41;4959458;28;1836;-69
2024/04/01 02:57:52;;;;;;;;;;;9.20;99.90;;;8.58;100.00;95619.28;4975505;28;1730;-69
2024/04/01 03:00:18;;;;;;;;;;;9.20;99.90;;;8.38;100.00;95604.22;4959262;28;1818;-69
2024/04/01 03:02:45;;;;;;;;;;;9.20;99.90;;;8.50;100.00;95598.25;4959523;28;1604;-69
2024/04/01 03:05:13;;;;;;;;;;;9.20;99.90;;;8.40;100.00;95598.94;4963265;28;1697;-69
2024/04/01 03:07:40;;;;;;;;;;;9.10;99.90;;;8.46;100.00;95611.47;4961756;28;1440;-69
2024/04/01 03:10:06;;;;;;;;;;;9.10;99.90;;;8.48;100.00;95605.28;4964850;28;1690;-69
2024/04/01 03:12:33;;;;;;;;;;;9.20;99.90;;;8.36;100.00;95609.47;4959681;28;1997;-70
2024/04/01 03:14:58;;;;;;;;;;;9.10;99.90;;;8.35;100.00;95605.25;4959559;28;1392;-69
2024/04/01 03:17:24;;;;;;;;;;;9.10;99.90;;;8.45;100.00;95612.44;4959198;28;1940;-69
2024/04/01 03:19:50;;;;;;;;;;;9.10;99.90;;;8.47;100.00;95613.97;4959280;28;2177;-69
2024/04/01 03:22:16;;;;;;;;;;;9.10;99.90;;;8.48;100.00;95625.16;4965093;28;1578;-69
2024/04/01 03:24:42;;;;;;;;;;;9.20;99.90;;;8.53;100.00;95629.09;4961866;28;1871;-69
2024/04/01 03:27:08;;;;;;;;;;;9.20;99.90;;;8.65;100.00;95632.63;4960619;28;1824;-69
2024/04/01 03:29:34;;;;;;;;;;;9.20;99.90;;;8.61;100.00;95627.75;4956535;28;1441;-69
2024/04/01 03:32:00;;;;;;;;;;;9.20;99.90;;;8.58;100.00;95626.22;4956622;28;1985;-69
2024/04/01 03:34:26;;;;;;;;;;;9.30;99.90;;;8.62;100.00;95642.34;4958922;28;3610;-69
2024/04/01 03:36:54;;;;;;;;;;;9.30;99.90;;;8.62;100.00;95647.50;4961253;28;1850;-69
2024/04/01 03:39:20;;;;;;;;;;;9.30;99.90;;;8.57;100.00;95661.56;4973555;28;1622;-69
2024/04/01 03:41:46;;;;;;;;;;;9.20;99.90;;;8.24;100.00;95689.59;4960256;28;2440;-69
2024/04/01 03:44:12;;;;;;;;;;;9.10;99.90;;;8.27;100.00;95686.78;4958026;28;2403;-69
2024/04/01 03:46:38;;;;;;;;;;;9.00;99.90;;;8.41;100.00;95686.75;4961217;28;2625;-69
2024/04/01 03:49:04;;;;;;;;;;;8.90;99.90;;;8.35;100.00;95702.66;4958013;28;1235;-69
2024/04/01 03:51:30;;;;;;;;;;;8.80;99.90;;;8.25;100.00;95696.41;4959791;28;1990;-69
2024/04/01 03:53:55;;;;;;;;;;;8.80;99.90;;;8.23;100.00;95699.06;4961661;28;1614;-69
2024/04/01 03:56:21;;;;;;;;;;;8.80;99.90;;;8.24;100.00;95705.91;4960013;28;1576;-69
2024/04/01 03:58:47;;;;;;;;;;;8.70;99.90;;;8.12;100.00;95710.09;4965938;28;2172;-69
2024/04/01 04:01:13;;;;;;;;;;;8.70;99.90;;;8.09;100.00;95701.69;4958905;28;2467;-69
2024/04/01 04:03:42;;;;;;;;;;;8.80;99.90;;;8.18;100.00;95703.69;4956906;28;1524;-69
2024/04/01 04:06:11;;;;;;;;;;;8.80;99.90;;;8.29;100.00;95690.94;4977363;28;2272;-69
2024/04/01 04:08:37;;;;;;;;;;;8.90;99.90;;;8.35;100.00;95698.31;4958558;28;1735;-69
2024/04/01 04:11:07;;;;;;;;;;;8.90;99.90;;;8.42;100.00;95698.78;4959804;28;1985;-69
2024/04/01 04:13:36;;;;;;;;;;;9.00;99.90;;;8.32;100.00;95690.72;4942455;28;1563;-69
2024/04/01 04:16:02;;;;;;;;;;;9.00;99.90;;;8.30;100.00;95681.41;4957165;28;1413;-69
2024/04/01 04:18:29;;;;;;;;;;;8.90;99.90;;;8.27;100.00;95691.97;4959638;28;1765;-69
2024/04/01 04:20:55;;;;;;;;;;;8.80;99.90;;;8.48;100.00;95687.19;4995414;28;3281;-69
2024/04/01 04:23:24;;;;;;;;;;;8.90;99.90;;;8.43;100.00;95694.44;4963415;28;1437;-69
2024/04/01 04:25:50;;;;;;;;;;;9.00;99.90;;;8.50;100.00;95693.09;4993416;28;1618;-69
2024/04/01 04:28:16;;;;;;;;;;;9.00;99.90;;;8.49;100.00;95684.53;4962032;28;1623;-69
2024/04/01 04:30:42;;;;;;;;;;;9.00;99.90;;;8.62;100.00;95683.72;4976475;28;1915;-69
2024/04/01 04:33:08;;;;;;;;;;;9.10;99.90;;;8.65;100.00;95678.38;4964327;28;1740;-69
2024/04/01 04:35:35;;;;;;;;;;;9.10;99.90;;;8.71;100.00;95673.63;4980697;28;1642;-69
2024/04/01 04:38:02;;;;;;;;;;;9.20;99.90;;;8.66;100.00;95672.25;4962993;28;1834;-69
2024/04/01 04:40:28;;;;;;;;;;;9.30;99.90;;;8.65;100.00;95663.66;4975931;28;1734;-69
2024/04/01 04:42:54;;;;;;;;;;;9.30;99.90;;;8.67;100.00;95666.16;4977136;28;1610;-69
2024/04/01 04:45:23;;;;;;;;;;;9.30;99.90;;;8.50;100.00;95670.66;4946119;28;1904;-69
2024/04/01 04:47:50;;;;;;;;;;;9.20;99.90;;;8.53;100.00;95673.06;4962407;28;2060;-69
2024/04/01 04:50:17;;;;;;;;;;;9.20;99.90;;;8.36;100.00;95673.28;4993968;28;2351;-69
2024/04/01 04:52:43;;;;;;;;;;;9.20;99.90;;;8.49;100.00;95676.75;4995380;28;1894;-70
2024/04/01 04:55:09;;;;;;;;;;;9.10;99.90;;;8.58;100.00;95681.34;4961903;28;1884;-69
2024/04/01 04:57:36;;;;;;;;;;;9.20;99.90;;;8.25;100.00;95698.97;4959753;28;1714;-69
2024/04/01 05:00:20;;;;;;;;;;;9.00;99.90;;;8.15;100.00;95696.97;4961786;28;1604;-69
2024/04/01 05:02:47;;;;;;;;;;;8.90;99.90;;;8.12;100.00;95717.84;4959238;28;1751;-69
2024/04/01 05:05:18;;;;;;;;;;;8.80;99.90;;;8.13;100.00;95719.50;4963527;28;3197;-69
2024/04/01 05:07:44;;;;;;;;;;;8.70;99.90;;;8.15;100.00;95716.81;4963843;28;1940;-69
2024/04/01 05:10:11;;;;;;;;;;;8.60;99.90;;;8.13;100.00;95726.44;4979945;28;1621;-69
2024/04/01 05:12:38;;;;;;;;;;;;;;;8.00;100.00;95731.50;4962010;28;2017;-69
2024/04/01 05:15:05;;;;;;;;;;;8.50;99.90;;;7.99;100.00;95737.63;4963688;28;1610;-69
2024/04/01 05:17:32;;;;;;;;;;;8.60;99.90;;;7.97;100.00;95748.03;4962142;28;2033;-69
2024/04/01 05:20:01;;;;;;;;;;;8.50;99.90;;;8.04;100.00;95739.91;4960976;28;1646;-69
2024/04/01 05:22:27;;;;;;;;;;;8.50;99.90;;;7.99;100.00;95752.31;4962301;28;1618;-69
2024/04/01 05:24:54;;;;;;;;;;;8.40;99.90;;;7.98;100.00;95746.28;4962670;28;1563;-69
2024/04/01 05:27:20;;;;;;;;;;;8.40;99.90;;;7.96;100.00;95748.97;4959917;28;1378;-69
2024/04/01 05:30:00;;;;;;;;;;;8.40;99.90;;;7.93;100.00;95753.50;4964000;28;1881;-69
2024/04/01 05:32:26;;;;;;;;;;;8.40;99.90;;;7.90;100.00;95754.50;4960457;28;1981;-69
2024/04/01 05:34:52;;;;;;;;;;;8.50;99.90;;;7.95;100.00;95751.66;4962607;28;1579;-69
2024/04/01 05:37:20;;;;;;;;;;;8.50;99.90;;;7.88;100.00;95761.53;4961564;28;1555;-69
2024/04/01 05:39:46;;;;;;;;;;;8.40;99.90;;;7.99;100.00;95763.47;4959885;28;1654;-69
2024/04/01 05:42:12;;;;;;;;;;;8.40;99.90;;;7.87;100.00;95753.88;4966592;28;1400;-69
2024/04/01 05:44:37;;;;;;;;;;;8.40;99.90;;;7.72;100.00;95760.78;4961795;28;1651;-69
2024/04/01 05:47:03;;;;;;;;;;;8.30;99.90;;;7.75;100.00;95768.34;4980335;28;1841;-69
2024/04/01 05:49:29;;;;;;;;;;;8.30;99.90;;;7.65;100.00;95773.25;4960743;28;3349;-70
2024/04/01 05:51:55;;;;;;;;;;;8.20;99.90;;;7.60;100.00;95770.13;4991637;28;2311;-69
2024/04/01 05:54:21;;;;;;;;;;;8.20;99.90;;;7.47;100.00;95767.41;4960648;28;1876;-69
2024/04/01 05:56:47;;;;;;;;;;;8.10;99.90;;;7.50;100.00;95764.69;4975270;28;1874;-69
2024/04/01 05:59:12;;;;;;;;;;;8.10;99.90;;;7.38;100.00;95767.97;4963206;28;1596;-69
2024/04/01 06:01:38;;;;;;;;;;;8.00;99.90;;;7.31;100.00;95777.81;4997263;28;1832;-69
2024/04/01 06:04:05;;;;;;;;;;;8.00;99.90;;;7.31;100.00;95793.28;4980782;28;1740;-69
2024/04/01 06:06:31;;;;;;;;;;;7.90;99.90;;;7.32;100.00;95807.03;4960474;28;2427;-70
2024/04/01 06:08:57;;;;;;;;;;;7.90;99.90;;;7.27;100.00;95799.56;4957461;28;1439;-70
2024/04/01 06:11:22;;;;;;;;;;;7.90;99.90;;;7.29;100.00;95814.97;4960018;28;1978;-69
2024/04/01 06:13:48;;;;;;;;;;;7.90;99.90;;;7.27;100.00;95825.34;4958513;28;1599;-70
2024/04/01 06:16:15;;;;;;;;;;;7.80;99.90;;;7.28;100.00;95821.88;4958191;28;1499;-69
2024/04/01 06:18:40;;;;;;;;;;;7.80;99.90;;;7.12;100.00;95831.41;4958475;28;1620;-69
2024/04/01 06:21:06;;;;;;;;;;;7.80;99.90;;;7.07;100.00;95835.97;4991462;28;2022;-70
2024/04/01 06:23:32;;;;;;;;;;;7.80;99.90;;;7.16;100.00;95839.78;4960197;28;1448;-69
2024/04/01 06:25:58;;;;;;;;;;;7.70;99.90;;;7.02;100.00;95841.41;4991758;28;1545;-69
2024/04/01 06:28:24;;;;;;;;;;;7.70;99.90;;;7.07;100.00;95835.97;4959871;28;1618;-69
2024/04/01 06:30:50;;;;;;;;;;;7.70;99.90;;;7.05;100.00;95848.16;4957505;28;1750;-70
2024/04/01 06:33:16;;;;;;;;;;;7.70;99.90;;;7.03;100.00;95850.00;4945771;28;1560;-70
2024/04/01 06:35:42;;;;;;;;;;;7.70;99.90;;;7.02;100.00;95851.72;4960034;28;3285;-69
2024/04/01 06:38:08;;;;;;;;;;;7.70;99.90;;;7.01;100.00;95862.97;4961315;28;2132;-70
2024/04/01 06:40:35;;;;;;;;;;;7.70;99.90;;;7.03;100.00;95862.91;4957437;28;1548;-70
2024/04/01 06:43:02;;;;;;;;;;;7.60;99.90;;;6.93;100.00;95851.41;4959509;28;1942;-69
2024/04/01 06:45:28;;;;;;;;;;;7.60;99.90;;;6.91;100.00;95856.66;4962587;28;1507;-70
2024/04/01 06:47:54;;;;;;;;;;;7.60;99.90;;;6.94;100.00;95851.34;4962195;28;1724;-69
2024/04/01 06:50:21;;;;;;;;;;;7.50;99.90;;;6.90;100.00;95848.09;4960667;28;1845;-69
2024/04/01 06:52:47;;;;;;;;;;;7.50;99.90;;;6.90;100.00;95849.84;4957597;28;1626;-69
2024/04/01 06:55:13;;;;;;;;;;;7.50;99.90;;;6.83;100.00;95848.53;4966340;28;1583;-69
2024/04/01 06:57:40;;;;;;;;;;;7.40;99.90;;;6.85;100.00;95849.28;4960191;28;1731;-69
2024/04/01 07:00:07;;;;;;;;;;;7.50;99.90;;;6.91;100.00;95848.91;4960041;28;1664;-69
2024/04/01 07:02:33;;;;;;;;;;;7.50;99.90;;;6.88;100.00;95843.94;4959308;28;1919;-69
2024/04/01 07:04:58;;;;;;;;;;;7.60;99.90;;;6.95;100.00;95849.59;4961232;28;2072;-69
2024/04/01 07:07:24;;;;;;;;;;;7.60;99.90;;;6.94;100.00;95837.63;4959887;28;2224;-69
2024/04/01 07:09:50;;;;;;;;;;;7.60;99.90;;;6.93;100.00;95844.50;4957987;28;1816;-69
2024/04/01 07:12:17;;;;;;;;;;;7.70;99.90;;;7.18;100.00;95838.78;4960806;28;1559;-69
2024/04/01 07:14:42;;;;;;;;;;;7.70;99.90;;;7.26;100.00;95822.88;4974705;28;1505;-69
2024/04/01 07:17:08;;;;;;;;;;;7.70;99.90;;;7.37;100.00;95820.53;4959342;28;1566;-69
2024/04/01 07:19:34;;;;;;;;;;;7.90;99.90;;;7.58;100.00;95831.34;4959876;28;3086;-69
2024/04/01 07:22:00;;;;;;;;;;;7.90;99.90;;;7.47;100.00;95831.13;4959149;28;1899;-69
2024/04/01 07:24:27;;;;;;;;;;;8.00;99.90;;;7.44;100.00;95831.31;4961702;28;1840;-69
2024/04/01 07:26:53;;;;;;;;;;;8.10;99.90;;;7.43;100.00;95837.38;4958923;28;1838;-70
2024/04/01 07:29:19;;;;;;;;;;;8.10;99.90;;;7.48;100.00;95837.94;4959071;28;1847;-69
2024/04/01 07:31:46;;;;;;;;;;;8.10;99.90;;;7.44;100.00;95841.66;4958871;28;1582;-68
2024/04/01 07:34:12;;;;;;;;;;;8.10;99.90;;;7.42;100.00;95846.06;4960354;28;2283;-69
2024/04/01 07:36:38;;;;;;;;;;;8.10;99.90;;;7.53;100.00;95849.69;4958499;28;1888;-69
2024/04/01 07:39:04;;;;;;;;;;;8.20;99.90;;;7.67;100.00;95854.03;4960451;28;1609;-69
2024/04/01 07:41:30;;;;;;;;;;;8.30;99.90;;;7.60;100.00;95865.66;4971855;28;2275;-69
2024/04/01 07:43:55;;;;;;;;;;;8.30;99.90;;;7.53;100.00;95865.16;4959411;28;2783;-69
2024/04/01 07:46:21;;;;;;;;;;;8.30;99.90;;;7.43;100.00;95868.38;4942369;28;1647;-69
2024/04/01 07:48:47;;;;;;;;;;;8.20;99.90;;;7.38;100.00;95871.22;4990450;28;1266;-69
2024/04/01 07:51:13;;;;;;;;;;;8.20;99.90;;;7.39;100.00;95884.94;4959814;28;1611;-69
2024/04/01 07:53:39;;;;;;;;;;;8.10;99.90;;;7.39;100.00;95888.38;4960639;28;1651;-69
2024/04/01 07:56:05;;;;;;;;;;;8.10;99.90;;;7.40;100.00;95894.34;4930834;28;2193;-69
2024/04/01 07:58:31;;;;;;;;;;;8.10;99.90;;;7.52;100.00;95902.22;4961852;28;1118;-69
2024/04/01 08:00:57;;;;;;;;;;;8.10;99.90;;;7.49;100.00;95899.00;4964954;28;1973;-69
2024/04/01 08:03:23;;;;;;;;;;;8.20;99.90;;;7.35;100.00;95883.47;4965057;28;1588;-69
2024/04/01 08:05:49;;;;;;;;;;;8.10;99.90;;;7.38;100.00;95889.28;4965909;28;3438;-70
2024/04/01 08:08:15;;;;;;;;;;;8.10;99.90;;;7.41;100.00;95899.44;4978368;28;1858;-70
2024/04/01 08:10:45;;;;;;;;;;;8.10;99.90;;;7.54;100.00;95884.91;4963546;28;1840;-69
2024/04/01 08:13:11;;;;;;;;;;;8.10;99.90;;;7.78;100.00;95883.56;4962639;28;1689;-70
2024/04/01 08:15:37;;;;;;;;;;;8.20;99.90;;;7.86;100.00;95882.19;4960308;28;1556;-69
2024/04/01 08:18:03;;;;;;;;;;;8.30;99.90;;;7.88;100.00;95890.69;4963838;28;1857;-70
2024/04/01 08:20:29;;;;;;;;;;;8.40;99.90;;;7.88;100.00;95890.69;4958472;28;2532;-70
2024/04/01 08:22:55;;;;;;;;;;;8.50;99.90;;;7.84;100.00;95899.53;4963087;28;2204;-69
2024/04/01 08:25:21;;;;;;;;;;;8.50;99.90;;;8.01;100.00;95911.47;4961981;28;1520;-70
2024/04/01 08:27:49;;;;;;;;;;;8.60;99.90;;;8.02;100.00;95904.53;4959925;28;1551;-70
2024/04/01 08:30:15;;;;;;;;;;;8.70;99.90;;;8.09;100.00;95905.84;4961483;28;1567;-69
2024/04/01 08:32:41;;;;;;;;;;;8.70;99.90;;;8.12;100.00;95911.66;4963339;28;1600;-69
2024/04/01 08:35:07;;;;;;;;;;;8.50;99.90;;;8.30;100.00;95902.00;4964159;28;1876;-70
2024/04/01 08:37:32;;;;;;;;;;;8.60;99.90;;;8.23;100.00;95902.44;4962942;28;1802;-69
2024/04/01 08:39:58;;;;;;;;;;;8.70;99.90;;;8.03;100.00;95901.03;4960021;28;1545;-70
2024/04/01 08:42:25;;;;;;;;;;;8.70;99.90;;;8.21;100.00;95902.53;4958597;28;1903;-70
2024/04/01 08:44:52;;;;;;;;;;;8.70;99.90;;;8.31;100.00;95892.47;4974770;28;1598;-69
2024/04/01 08:47:18;;;;;;;;;;;8.80;99.90;;;8.32;100.00;95897.53;4963150;28;3261;-69
2024/04/01 08:49:50;;;;;;;;;;;8.80;99.90;;;8.05;100.00;95896.59;4968715;28;2307;-69
2024/04/01 08:52:23;;;;;;;;;;;8.80;99.90;;;8.16;100.00;95923.50;4990968;28;1571;-69
2024/04/01 08:54:49;;;;;;;;;;;8.70;99.90;;;8.17;100.00;95909.63;4964317;28;1562;-69
2024/04/01 08:57:15;;;;;;;;;;;8.90;99.90;;;8.23;100.00;95920.53;4965073;28;1824;-69
2024/04/01 08:59:42;;;;;;;;;;;8.70;99.90;;;7.97;100.00;95928.06;4943306;28;1609;-69
2024/04/01 09:02:08;;;;;;;;;;;8.70;99.90;;;7.82;100.00;95934.94;4977985;28;1918;-69
2024/04/01 09:04:34;;;;;;;;;;;8.60;99.90;;;7.90;100.00;95937.09;4961683;28;2136;-69
2024/04/01 09:07:00;;;;;;;;;;;8.40;99.90;;;7.85;100.00;95931.38;4962031;28;1438;-69
2024/04/01 09:09:27;;;;;;;;;;;8.40;99.90;;;7.80;100.00;95944.56;4959802;28;1724;-69
2024/04/01 09:11:53;;;;;;;;;;;8.40;99.90;;;7.83;100.00;95940.97;4980178;28;1612;-69
2024/04/01 09:14:19;;;;;;;;;;;8.40;99.90;;;8.28;100.00;95932.25;4993005;28;1600;-69
2024/04/01 09:16:48;;;;;;;;;;;8.50;99.90;;;8.38;100.00;95919.59;4949391;28;2022;-69
2024/04/01 09:19:16;;;;;;;;;;;8.60;99.90;;;8.46;100.00;95926.94;4962815;28;1587;-69
2024/04/01 09:21:42;;;;;;;;;;;8.70;99.90;;;8.44;100.00;95928.75;4964038;28;1979;-69
2024/04/01 09:24:10;;;;;;;;;;;8.90;99.90;;;8.45;100.00;95948.53;4960274;28;1918;-69
2024/04/01 09:26:36;;;;;;;;;;;8.70;99.90;;;8.25;100.00;95958.28;4961042;28;1626;-69
2024/04/01 09:29:02;;;;;;;;;;;8.80;99.90;;;7.82;100.00;95962.53;4961401;28;1663;-69
2024/04/01 09:31:28;;;;;;;;;;;8.70;99.90;;;7.60;100.00;95948.28;4981266;28;3325;-69
2024/04/01 09:33:55;;;;;;;;;;;8.60;99.90;;;7.63;100.00;95955.84;4958887;28;1658;-69
2024/04/01 09:36:21;;;;;;;;;;;8.50;99.90;;;7.59;100.00;95987.91;4979717;28;1422;-68
2024/04/01 09:38:48;;;;;;;;;;;8.30;99.90;;;7.41;100.00;96005.28;4961732;28;1598;-69
2024/04/01 09:41:14;;;;;;;;;;;8.10;99.90;;;7.52;100.00;96010.66;4961868;28;2431;-69
2024/04/01 09:43:40;;;;;;;;;;;8.10;99.90;;;7.89;100.00;96006.03;4960520;28;1606;-69
2024/04/01 09:46:06;;;;;;;;;;;8.30;99.90;;;8.18;100.00;96006.09;4962438;28;1733;-69
2024/04/01 09:48:31;;;;;;;;;;;8.50;99.90;;;8.22;100.00;96007.56;4959663;28;1611;-69
2024/04/01 09:50:59;;;;;;;;;;;8.40;99.90;;;7.97;100.00;96032.25;4957362;28;1546;-69
2024/04/01 09:53:27;;;;;;;;;;;8.50;99.90;;;7.97;100.00;96047.75;4958430;28;2170;-69
2024/04/01 09:56:38;;;;;;;;;;;8.40;99.90;;;7.75;100.00;96040.38;4979602;28;1396;-69
2024/04/01 09:59:17;;;;;;;;;;;8.40;99.90;;;7.76;100.00;96041.22;4964061;28;1416;-69
2024/04/01 10:02:17;;;;;;;;;;;8.50;99.90;;;8.00;100.00;96044.16;4957871;28;1978;-69
2024/04/01 10:05:08;;;;;;;;;;;8.50;99.90;;;8.07;100.00;96071.31;4956399;28;2076;-69
2024/04/01 10:07:58;;;;;;;;;;;8.50;99.90;;;8.09;100.00;96073.81;4959768;28;2503;-69
2024/04/01 10:10:43;;;;;;;;;;;8.50;99.90;;;8.03;100.00;96094.81;4961661;28;1430;-69
2024/04/01 10:13:21;;;;;;;;;;;8.50;99.90;;;7.88;100.00;96102.50;4979849;28;1759;-69
2024/04/01 10:16:22;;;;;;;;;;;8.50;99.90;;;8.02;100.00;96094.00;4962629;28;1654;-69
2024/04/01 10:19:12;;;;;;;;;;;8.40;99.90;;;8.16;100.00;96095.78;4958121;28;1726;-69
2024/04/01 10:21:44;;;;;;;;;;;8.60;99.90;;;8.22;100.00;96099.81;4961029;28;3160;-69
2024/04/01 10:24:25;;;;;;;;;;;8.70;99.90;;;8.12;100.00;96113.25;4975626;28;1384;-69
2024/04/01 10:27:10;;;;;;;;;;;8.60;99.90;;;8.19;100.00;96121.50;4961285;28;1612;-69
2024/04/01 10:29:53;;;;;;;;;;;8.70;99.90;;;7.84;100.00;96154.44;4961078;28;1601;-69
2024/04/01 10:32:31;;;;;;;;;;;8.70;99.90;;;7.77;100.00;96150.53;4960923;28;1548;-69
2024/04/01 10:35:09;;;;;;;;;;;8.50;99.90;;;7.72;100.00;96171.44;4962381;28;1418;-69
2024/04/01 10:37:35;;;;;;;;;;;8.40;99.90;;;7.73;100.00;96161.03;4959680;28;2004;-69
2024/04/01 10:40:04;;;;;;;;;;;8.20;99.90;;;7.72;100.00;96181.75;4959689;28;1327;-69
2024/04/01 10:42:45;;;;;;;;;;;8.10;99.90;;;7.88;100.00;96186.94;4973160;28;1895;-69
2024/04/01 10:45:26;;;;;;;;;;;8.20;99.90;;;7.72;100.00;96186.94;4962457;28;1630;-68
2024/04/01 10:48:11;;;;;;;;;;;8.30;99.90;;;7.78;100.00;96203.84;4960098;28;1987;-69
2024/04/01 10:51:00;;;;;;;;;;;8.40;99.90;;;7.93;100.00;96201.25;4961943;28;2352;-70
2024/04/01 10:53:48;;;;;;;;;;;8.50;99.90;;;8.01;100.00;96208.63;4961508;28;1487;-69
2024/04/01 10:56:45;;;;;;;;;;;8.60;99.90;;;8.13;100.00;96199.34;4947880;28;1598;-70
2024/04/01 10:59:36;;;;;;;;;;;8.70;99.90;;;8.41;100.00;96205.63;4976533;28;1373;-69
2024/04/01 11:02:08;;;;;;;;;;;8.80;99.90;;;8.30;100.00;96204.44;4962361;28;1995;-69
2024/04/01 11:04:51;;;;;;;;;;;8.70;99.90;;;8.30;100.00;96214.78;4962802;28;3034;-69
2024/04/01 11:07:51;;;;;;;;;;;8.80;99.90;;;8.25;100.00;96216.75;4949646;28;1590;-70
2024/04/01 11:10:20;;;;;;;;;;;8.90;99.90;;;8.38;100.00;96233.28;4958998;28;1635;-69
2024/04/01 11:13:05;;;;;;;;;;;8.90;99.90;;;8.23;100.00;96236.69;4977357;28;1589;-69
2024/04/01 11:15:31;;;;;;;;;;;8.70;99.90;;;8.07;100.00;96259.94;4962849;28;1328;-69
2024/04/01 11:18:10;;;;;;;;;;;8.70;99.90;;;8.18;100.00;96236.94;4975131;28;1668;-70
2024/04/01 11:21:11;;;;;;;;;;;8.70;99.90;;;8.18;100.00;96259.38;4978944;28;1515;-69
2024/04/01 11:23:55;;;;;;;;;;;8.60;99.90;;;7.94;100.00;96244.28;4962173;28;1665;-69
2024/04/01 11:26:32;;;;;;;;;;;8.60;99.90;;;8.02;100.00;96263.72;4990571;28;1714;-69
2024/04/01 11:29:07;;;;;;;;;;;8.70;99.90;;;7.92;100.00;96276.28;4967721;28;1624;-69
2024/04/01 11:31:34;;;;;;;;;;;8.50;99.90;;;7.86;100.00;96274.03;4961293;28;1936;-68
2024/04/01 11:34:06;;;;;;;;;;;8.50;99.90;;;7.70;100.00;96282.56;4965977;28;2700;-68
2024/04/01 11:36:57;;;;;;;;;;;8.40;99.90;;;7.63;100.00;96299.28;4961424;28;1779;-69
2024/04/01 11:39:23;;;;;;;;;;;8.30;99.90;;;7.52;100.00;96297.25;4959232;28;2497;-69
2024/04/01 11:41:50;;;;;;;;;;;8.20;99.90;;;7.43;100.00;96312.38;4975716;28;1895;-69